Time;durP1;ratioP1;P1;durP2;ratioP2;P2;SDS_P1;SDS_P2;PMS_P1;PMS_P2;Temp;Humidity;BMP_temperature;BMP_pressure;BME280_temperature;BME280_humidity;BME280_pressure;Samples;Min_cycle;Max_cycle;Signal;HPM_P1;HPM_P2
2020/12/03 00:02:16;;;;;;;70.40;27.10;;;-1.90;99.90;;;;;;5053943;28;20028;-83
2020/12/03 00:04:44;;;;;;;63.23;26.20;;;-1.90;99.90;;;;;;5045477;28;20092;-84
2020/12/03 00:07:11;;;;;;;65.03;25.17;;;-1.90;99.90;;;;;;5039386;28;20031;-85
2020/12/03 00:09:37;;;;;;;67.63;26.27;;;-1.90;99.90;;;;;;5032209;28;20029;-84
2020/12/03 00:12:03;;;;;;;72.20;28.37;;;-1.90;99.90;;;;;;5056475;28;20104;-85
2020/12/03 00:14:29;;;;;;;70.53;27.70;;;-1.90;99.90;;;;;;5041754;28;20021;-86
2020/12/03 00:16:56;;;;;;;67.20;24.70;;;-2.00;99.90;;;;;;5037963;28;20025;-87
2020/12/03 00:19:24;;;;;;;66.77;28.30;;;-2.00;99.90;;;;;;5023082;28;20440;-86
2020/12/03 00:22:01;;;;;;;58.27;25.23;;;-1.90;99.90;;;;;;5037217;28;20041;-84
2020/12/03 00:24:32;;;;;;;59.80;26.10;;;-2.00;99.90;;;;;;5033601;28;20384;-84
2020/12/03 00:27:11;;;;;;;67.40;25.70;;;-1.90;99.90;;;;;;5027931;28;20493;-86
2020/12/03 00:29:37;;;;;;;64.72;26.98;;;-1.90;99.90;;;;;;5036976;28;20041;-85
2020/12/03 00:32:03;;;;;;;62.33;26.57;;;-2.00;99.90;;;;;;5035959;28;20032;-84
2020/12/03 00:34:29;;;;;;;63.77;24.70;;;-1.90;99.90;;;;;;5073272;28;20013;-86
2020/12/03 00:36:56;;;;;;;57.03;22.30;;;-1.90;99.90;;;;;;5056573;28;20052;-85
2020/12/03 00:39:22;;;;;;;59.93;24.53;;;-1.90;99.90;;;;;;5062035;28;20084;-85
2020/12/03 00:41:52;;;;;;;63.53;25.00;;;-2.00;99.90;;;;;;5036779;28;20032;-85
2020/12/03 00:44:18;;;;;;;56.10;21.77;;;-2.00;99.90;;;;;;5051580;28;20036;-85
2020/12/03 00:46:43;;;;;;;64.83;26.07;;;-2.00;99.90;;;;;;5045486;28;20034;-84
2020/12/03 00:49:12;;;;;;;59.93;24.90;;;-2.00;99.90;;;;;;5033933;28;20021;-85
2020/12/03 00:51:37;;;;;;;69.90;27.37;;;-1.90;99.90;;;;;;5054333;28;20025;-86
2020/12/03 00:54:03;;;;;;;61.43;24.87;;;-1.90;99.90;;;;;;5055242;28;20443;-88
2020/12/03 00:56:29;;;;;;;64.17;25.63;;;-1.90;99.90;;;;;;5023523;28;20097;-85
2020/12/03 00:58:54;;;;;;;60.13;26.77;;;-1.90;99.90;;;;;;5026231;28;20094;-87
2020/12/03 01:01:20;;;;;;;58.27;24.40;;;-2.00;99.90;;;;;;5056376;28;20097;-85
2020/12/03 01:03:48;;;;;;;60.43;24.33;;;-2.00;99.90;;;;;;5039874;28;20112;-86
2020/12/03 01:06:14;;;;;;;60.53;22.70;;;-1.90;99.90;;;;;;5056424;28;20136;-86
2020/12/03 01:08:40;;;;;;;59.37;26.13;;;-2.00;99.90;;;;;;5057325;28;20163;-86
2020/12/03 01:11:05;;;;;;;62.73;25.57;;;-1.90;99.90;;;;;;5028905;28;20154;-85
2020/12/03 01:13:32;;;;;;;60.87;25.17;;;-1.90;99.90;;;;;;5055165;28;20151;-87
2020/12/03 01:15:58;;;;;;;59.63;24.07;;;-1.90;99.90;;;;;;5043561;28;20493;-85
2020/12/03 01:18:24;;;;;;;60.93;25.60;;;-1.90;99.90;;;;;;5040323;28;20033;-87
2020/12/03 01:20:49;;;;;;;68.30;26.00;;;-1.90;99.90;;;;;;5051953;28;20133;-84
2020/12/03 01:23:15;;;;;;;61.40;24.00;;;-2.00;99.90;;;;;;5052325;28;20052;-83
2020/12/03 01:25:40;;;;;;;59.97;23.03;;;-2.00;99.90;;;;;;5049607;28;20029;-83
2020/12/03 01:28:06;;;;;;;69.83;26.67;;;-2.00;99.90;;;;;;5033313;28;20121;-83
2020/12/03 01:30:32;;;;;;;62.27;21.70;;;-2.00;99.90;;;;;;5033720;28;20036;-83
2020/12/03 01:32:57;;;;;;;70.57;26.87;;;-2.00;99.90;;;;;;5032444;28;20041;-83
2020/12/03 01:35:23;;;;;;;67.27;24.50;;;-2.00;99.90;;;;;;5031507;28;20034;-84
2020/12/03 01:37:50;;;;;;;70.03;26.43;;;-1.90;99.90;;;;;;5017047;28;20447;-85
2020/12/03 01:40:20;;;;;;;57.90;19.80;;;-2.00;99.90;;;;;;5029601;28;20037;-85
2020/12/03 01:42:45;;;;;;;73.25;27.55;;;-1.90;99.90;;;;;;5027733;28;20096;-84
2020/12/03 01:45:52;;;;;;;60.50;22.47;;;-2.00;99.90;;;;;;5028469;28;20489;-85
2020/12/03 01:48:35;;;;;;;45.23;16.03;;;-2.00;99.90;;;;;;5012027;28;20045;-85
2020/12/03 01:51:08;;;;;;;57.00;19.67;;;-2.00;99.90;;;;;;5033251;28;20882;-86
2020/12/03 01:53:34;;;;;;;49.23;16.33;;;-2.00;99.90;;;;;;5051412;28;20041;-84
2020/12/03 01:56:04;;;;;;;40.30;15.90;;;-2.00;99.90;;;;;;5020369;28;20037;-83
2020/12/03 01:58:42;;;;;;;63.63;23.93;;;-2.00;99.90;;;;;;5020931;28;20120;-86
2020/12/03 02:01:09;;;;;;;63.70;22.50;;;-2.00;99.90;;;;;;5018983;28;20493;-85
2020/12/03 02:03:46;;;;;;;61.93;22.47;;;-2.00;99.90;;;;;;5038372;28;20049;-84
2020/12/03 02:06:23;;;;;;;61.63;22.20;;;-2.00;99.90;;;;;;5039543;28;20029;-84
2020/12/03 02:08:49;;;;;;;47.53;15.17;;;-2.00;99.90;;;;;;5035077;28;20033;-85
2020/12/03 02:11:16;;;;;;;58.93;21.80;;;-2.00;99.90;;;;;;5024326;28;20034;-85
2020/12/03 02:13:55;;;;;;;36.40;12.57;;;-2.00;99.90;;;;;;5019422;28;20013;-85
2020/12/03 02:16:24;;;;;;;59.30;22.40;;;-1.90;99.90;;;;;;5032051;28;20022;-85
2020/12/03 02:18:50;;;;;;;63.53;22.92;;;-2.00;99.90;;;;;;5035293;28;20032;-84
2020/12/03 02:21:16;;;;;;;52.43;19.47;;;-2.00;99.90;;;;;;5032310;28;20044;-85
2020/12/03 02:23:42;;;;;;;55.97;21.87;;;-2.00;99.90;;;;;;5030945;28;20059;-82
2020/12/03 02:26:09;;;;;;;61.43;24.30;;;-2.00;99.90;;;;;;5051108;28;20029;-84
2020/12/03 02:28:35;;;;;;;54.23;20.07;;;-2.00;99.90;;;;;;5034195;28;20116;-83
2020/12/03 02:31:01;;;;;;;56.17;21.60;;;-2.00;99.90;;;;;;5036298;28;20430;-84
2020/12/03 02:33:26;;;;;;;54.07;20.63;;;-1.90;99.90;;;;;;5030730;28;20456;-84
2020/12/03 02:35:52;;;;;;;60.00;21.47;;;-1.90;99.90;;;;;;5051116;28;20080;-83
2020/12/03 02:38:17;;;;;;;50.87;18.30;;;-1.90;99.90;;;;;;5044803;28;20029;-84
2020/12/03 02:40:43;;;;;;;51.60;16.93;;;-1.90;99.90;;;;;;5037537;28;20380;-85
2020/12/03 02:43:09;;;;;;;58.77;21.93;;;-1.90;99.90;;;;;;5027564;28;20036;-86
2020/12/03 02:45:34;;;;;;;50.97;19.63;;;-1.90;99.90;;;;;;5033900;28;20026;-85
2020/12/03 02:48:02;;;;;;;55.63;21.53;;;-1.90;99.90;;;;;;5036294;28;20021;-84
2020/12/03 02:50:28;;;;;;;51.20;20.40;;;-1.90;99.90;;;;;;5051239;28;20033;-85
2020/12/03 02:52:53;;;;;;;51.97;20.73;;;-1.80;99.90;;;;;;5032523;28;20023;-84
2020/12/03 02:55:20;;;;;;;56.07;19.93;;;-1.80;99.90;;;;;;5022815;28;20030;-84
2020/12/03 02:57:45;;;;;;;49.97;19.50;;;-1.90;99.90;;;;;;5036962;28;20132;-84
2020/12/03 03:00:11;;;;;;;59.13;21.30;;;-1.80;99.90;;;;;;5025039;28;20187;-83
2020/12/03 03:02:37;;;;;;;55.40;20.77;;;-1.80;99.90;;;;;;5017557;28;20570;-85
2020/12/03 03:05:03;;;;;;;57.43;23.50;;;-1.80;99.90;;;;;;5051497;28;20037;-85
2020/12/03 03:07:28;;;;;;;51.50;19.57;;;-1.80;99.90;;;;;;5032014;28;20025;-84
2020/12/03 03:09:54;;;;;;;55.13;20.50;;;-1.70;99.90;;;;;;5041841;28;20040;-84
2020/12/03 03:12:20;;;;;;;52.63;19.33;;;-1.70;99.90;;;;;;5039113;28;20013;-83
2020/12/03 03:14:45;;;;;;;58.27;22.00;;;-1.80;99.90;;;;;;5040336;28;20069;-84
2020/12/03 03:17:12;;;;;;;56.93;21.87;;;-1.80;99.90;;;;;;5046772;28;20029;-85
2020/12/03 03:19:37;;;;;;;58.47;21.63;;;-1.80;99.90;;;;;;5054115;28;20060;-84
2020/12/03 03:22:03;;;;;;;62.70;23.13;;;-1.80;99.90;;;;;;5024212;28;20033;-85
2020/12/03 03:24:29;;;;;;;59.90;23.53;;;-1.80;99.90;;;;;;5020061;28;20033;-85
2020/12/03 03:26:54;;;;;;;57.00;22.67;;;-1.70;99.90;;;;;;5029187;28;20038;-85
2020/12/03 03:29:20;;;;;;;59.07;23.07;;;-1.70;99.90;;;;;;5036136;28;20080;-85
2020/12/03 03:31:47;;;;;;;57.40;21.70;;;-1.70;99.90;;;;;;5023873;28;20036;-84
2020/12/03 03:34:12;;;;;;;65.73;24.80;;;-1.70;99.90;;;;;;5025915;28;20083;-85
2020/12/03 03:36:38;;;;;;;61.17;22.80;;;-1.70;99.90;;;;;;5022443;28;20116;-85
2020/12/03 03:39:06;;;;;;;58.40;23.83;;;-1.70;99.90;;;;;;5023089;28;20025;-85
2020/12/03 03:41:32;;;;;;;62.13;22.43;;;-1.70;99.90;;;;;;5028515;28;20073;-83
2020/12/03 03:43:57;;;;;;;61.90;22.27;;;-1.70;99.90;;;;;;5034775;28;20025;-88
2020/12/03 03:46:23;;;;;;;63.20;22.03;;;-1.70;99.90;;;;;;5027275;28;20657;-84
2020/12/03 03:48:49;;;;;;;59.13;24.13;;;-1.60;99.90;;;;;;5026272;28;20038;-84
2020/12/03 03:51:15;;;;;;;54.23;19.73;;;-1.60;99.90;;;;;;5022388;28;20455;-82
2020/12/03 03:53:41;;;;;;;60.10;22.80;;;-1.60;99.90;;;;;;5020510;28;20053;-86
2020/12/03 03:56:09;;;;;;;57.43;21.30;;;-1.50;99.90;;;;;;5017941;28;20418;-85
2020/12/03 03:58:34;;;;;;;58.47;21.13;;;-1.50;99.90;;;;;;5019844;28;20036;-85
2020/12/03 04:01:00;;;;;;;58.53;21.67;;;-1.60;99.90;;;;;;5015443;28;20045;-86
2020/12/03 04:03:26;;;;;;;56.50;22.63;;;-1.50;99.90;;;;;;5043450;28;20033;-84
2020/12/03 04:05:55;;;;;;;58.40;22.33;;;-1.50;99.90;;;;;;5042816;28;20021;-85
2020/12/03 04:08:24;;;;;;;59.35;20.55;;;-1.60;99.90;;;;;;5040495;28;20032;-85
2020/12/03 04:10:50;;;;;;;62.13;22.42;;;-1.60;99.90;;;;;;5035647;28;20056;-84
2020/12/03 04:13:18;;;;;;;65.00;23.90;;;-1.60;99.90;;;;;;5031768;28;20029;-84
2020/12/03 04:15:43;;;;;;;54.13;20.83;;;-1.60;99.90;;;;;;5040023;28;20121;-86
2020/12/03 04:18:09;;;;;;;60.07;20.43;;;-1.60;99.90;;;;;;5026079;28;20088;-84
2020/12/03 04:20:35;;;;;;;64.13;21.80;;;-1.60;99.90;;;;;;5022601;28;20087;-86
2020/12/03 04:23:01;;;;;;;58.50;21.67;;;-1.70;99.90;;;;;;5033086;28;20029;-85
2020/12/03 04:25:27;;;;;;;58.23;20.70;;;-1.60;99.90;;;;;;5023397;28;20030;-85
2020/12/03 04:27:52;;;;;;;53.70;19.70;;;-1.60;99.90;;;;;;5018778;28;20306;-82
2020/12/03 04:30:18;;;;;;;54.87;20.17;;;-1.60;99.90;;;;;;5047676;28;20034;-84
2020/12/03 04:32:44;;;;;;;53.03;20.17;;;-1.60;99.90;;;;;;5024957;28;20042;-84
2020/12/03 04:35:10;;;;;;;52.97;19.43;;;-1.50;99.90;;;;;;5032713;28;20041;-84
2020/12/03 04:37:36;;;;;;;58.50;21.47;;;-1.50;99.90;;;;;;5033732;28;20029;-83
2020/12/03 04:40:05;;;;;;;56.63;19.43;;;-1.40;99.90;;;;;;5034821;28;20041;-84
2020/12/03 04:42:33;;;;;;;53.97;20.10;;;-1.40;99.90;;;;;;5022424;28;20503;-83
2020/12/03 04:45:15;;;;;;;53.23;20.23;;;-1.40;99.90;;;;;;5021742;28;20380;-84
2020/12/03 04:47:49;;;;;;;52.60;19.43;;;-1.40;99.90;;;;;;5050354;28;20026;-84
2020/12/03 04:50:28;;;;;;;52.13;18.73;;;-1.40;99.90;;;;;;5017804;28;20030;-83
2020/12/03 04:53:07;;;;;;;56.13;21.25;;;-1.40;99.90;;;;;;5024731;28;20101;-84
2020/12/03 04:55:57;;;;;;;54.92;20.23;;;-1.40;99.90;;;;;;5029312;28;20022;-85
2020/12/03 04:58:35;;;;;;;50.93;19.17;;;-1.40;99.90;;;;;;5019215;28;20378;-86
2020/12/03 05:01:20;;;;;;;56.63;20.90;;;-1.40;99.90;;;;;;5033173;28;20121;-85
2020/12/03 05:04:08;;;;;;;48.37;19.00;;;-1.40;99.90;;;;;;5036403;28;20025;-87
2020/12/03 05:07:07;;;;;;;47.50;18.80;;;-1.40;99.90;;;;;;5027698;28;20032;-85
2020/12/03 05:09:55;;;;;;;50.00;18.23;;;-1.40;99.90;;;;;;4974791;28;20049;-85
2020/12/03 05:12:26;;;;;;;53.43;19.50;;;-1.40;99.90;;;;;;4957077;28;20039;-83
2020/12/03 05:14:55;;;;;;;58.63;21.03;;;-1.40;99.90;;;;;;4944448;28;20434;-86
2020/12/03 05:17:44;;;;;;;53.45;19.25;;;-1.40;99.90;;;;;;4956213;28;20536;-86
2020/12/03 05:20:24;;;;;;;50.92;19.13;;;-1.40;99.90;;;;;;4966175;29;20043;-85
2020/12/03 05:23:04;;;;;;;48.90;19.10;;;-1.40;99.90;;;;;;4974421;28;20043;-84
2020/12/03 05:25:29;;;;;;;53.67;19.98;;;-1.40;99.90;;;;;;4949210;28;20027;-87
2020/12/03 05:27:59;;;;;;;54.63;20.97;;;-1.40;99.90;;;;;;4967019;28;20118;-86
2020/12/03 05:30:26;;;;;;;51.73;19.60;;;-1.40;99.90;;;;;;4958816;28;20462;-88
2020/12/03 05:32:52;;;;;;;54.83;20.03;;;-1.40;99.90;;;;;;4972398;28;20038;-90
2020/12/03 05:35:18;;;;;;;51.37;20.20;;;-1.40;99.90;;;;;;4975663;28;20056;-86
2020/12/03 05:37:44;;;;;;;52.87;19.53;;;-1.40;99.90;;;;;;4980135;28;20023;-85
2020/12/03 05:40:30;;;;;;;46.47;17.43;;;-1.40;99.90;;;;;;4980203;28;20054;-85
2020/12/03 05:42:56;;;;;;;47.77;18.23;;;-1.30;99.90;;;;;;4961706;29;20046;-83
2020/12/03 05:45:31;;;;;;;52.27;19.57;;;-1.30;99.90;;;;;;4975647;28;20023;-83
2020/12/03 05:47:58;;;;;;;50.97;18.07;;;-1.30;99.90;;;;;;5032810;28;20018;-84
2020/12/03 05:50:39;;;;;;;49.07;17.40;;;-1.40;99.90;;;;;;5053406;28;20033;-82
2020/12/03 05:53:13;;;;;;;49.27;18.67;;;-1.40;99.90;;;;;;5057626;28;20016;-88
2020/12/03 05:55:42;;;;;;;52.60;20.67;;;-1.40;99.90;;;;;;5046648;28;20040;-84
2020/12/03 05:58:14;;;;;;;54.47;20.23;;;-1.40;99.90;;;;;;5043475;28;20385;-87
2020/12/03 06:00:39;;;;;;;55.87;19.90;;;-1.40;99.90;;;;;;5038129;28;20037;-86
2020/12/03 06:03:51;;;;;;;54.13;20.33;;;-1.50;99.90;;;;;;5027714;28;20057;-88
2020/12/03 06:06:38;;;;;;;52.53;20.00;;;-1.40;99.90;;;;;;4926887;29;20703;-82
2020/12/03 06:09:36;;;;;;;50.40;19.13;;;-1.50;99.90;;;;;;4930180;29;20031;-83
2020/12/03 06:12:39;;;;;;;51.60;20.43;;;-1.50;99.90;;;;;;4923296;29;20051;-81
2020/12/03 06:15:21;;;;;;;49.07;18.47;;;-1.50;99.90;;;;;;4924710;29;20031;-81
2020/12/03 06:18:24;;;;;;;51.10;18.60;;;-1.40;99.90;;;;;;4927532;29;20075;-82
2020/12/03 06:21:17;;;;;;;58.37;20.33;;;-1.30;99.90;;;;;;4945318;29;20087;-84
2020/12/03 06:23:53;;;;;;;54.73;19.73;;;-1.40;99.90;;;;;;4945190;29;20055;-81
2020/12/03 06:26:50;;;;;;;45.23;18.20;;;-1.30;99.90;;;;;;4950112;29;20046;-81
2020/12/03 06:29:31;;;;;;;51.80;20.17;;;-1.30;99.90;;;;;;4949068;28;20043;-83
2020/12/03 06:32:21;;;;;;;45.37;18.77;;;-1.30;99.90;;;;;;4945426;29;20430;-86
2020/12/03 06:35:20;;;;;;;49.37;19.27;;;-1.30;99.90;;;;;;4954025;29;20032;-85
2020/12/03 06:38:13;;;;;;;51.65;19.45;;;-1.20;99.90;;;;;;4949971;28;20043;-82
2020/12/03 06:40:45;;;;;;;50.87;20.07;;;-1.20;99.90;;;;;;4946953;29;20538;-80
2020/12/03 06:43:22;;;;;;;53.63;20.40;;;-1.30;99.90;;;;;;4945590;28;20414;-79
2020/12/03 06:46:03;;;;;;;54.93;21.07;;;-1.40;99.90;;;;;;4950929;28;20035;-80
2020/12/03 06:49:02;;;;;;;54.67;20.50;;;-1.40;99.90;;;;;;4929884;29;20534;-81
2020/12/03 06:52:08;;;;;;;59.60;20.60;;;-1.50;99.90;;;;;;4947524;28;20087;-80
2020/12/03 06:54:42;;;;;;;58.67;21.37;;;-1.50;99.90;;;;;;4904085;29;20569;-80
2020/12/03 06:57:31;;;;;;;58.43;21.43;;;-1.50;99.90;;;;;;4914135;28;20481;-79
2020/12/03 07:00:21;;;;;;;64.20;22.90;;;-1.60;99.90;;;;;;4966244;28;20046;-79
2020/12/03 07:03:21;;;;;;;59.10;22.30;;;-1.50;99.90;;;;;;4969488;28;20055;-80
2020/12/03 07:06:15;;;;;;;57.53;21.00;;;-1.50;99.90;;;;;;4963769;28;20489;-82
2020/12/03 07:09:05;;;;;;;56.80;20.97;;;-1.50;99.90;;;;;;4968222;28;20022;-81
2020/12/03 07:11:55;;;;;;;57.72;20.67;;;-1.50;99.90;;;;;;4951235;28;20042;-79
2020/12/03 07:14:20;;;;;;;56.77;21.80;;;-1.50;99.90;;;;;;4967913;28;20057;-81
2020/12/03 07:17:19;;;;;;;58.10;21.47;;;-1.40;99.90;;;;;;4969072;28;20090;-81
2020/12/03 07:20:05;;;;;;;58.40;21.10;;;-1.30;99.90;;;;;;4967927;28;20577;-80
2020/12/03 07:22:39;;;;;;;50.00;19.60;;;-1.30;99.90;;;;;;4970397;28;20081;-80
2020/12/03 07:25:06;;;;;;;50.70;19.80;;;-1.20;99.90;;;;;;4975470;28;20078;-80
2020/12/03 07:27:52;;;;;;;49.27;20.17;;;-1.10;99.90;;;;;;4974900;28;20026;-81
2020/12/03 07:30:35;;;;;;;46.23;19.33;;;-1.10;99.90;;;;;;4961352;28;20035;-81
2020/12/03 07:33:18;;;;;;;45.30;18.40;;;-1.10;99.90;;;;;;5021290;28;20037;-82
2020/12/03 07:36:35;;;;;;;51.17;19.77;;;-1.00;99.90;;;;;;5020218;28;20041;-82
2020/12/03 07:39:10;;;;;;;52.73;18.87;;;-1.00;99.90;;;;;;4961447;28;20529;-79
2020/12/03 07:41:47;;;;;;;45.20;17.27;;;-0.90;99.90;;;;;;4965071;28;20130;-80
2020/12/03 07:44:41;;;;;;;47.47;18.47;;;-0.80;99.90;;;;;;4964595;28;20030;-81
2020/12/03 07:47:35;;;;;;;36.57;14.47;;;-0.80;99.90;;;;;;4965124;28;20118;-80
2020/12/03 07:50:05;;;;;;;47.60;18.00;;;-0.80;99.90;;;;;;4967026;28;20138;-81
2020/12/03 07:52:38;;;;;;;42.03;16.97;;;-0.80;99.90;;;;;;4955795;28;20043;-80
2020/12/03 07:55:23;;;;;;;43.37;18.33;;;-0.70;99.90;;;;;;4968058;28;20039;-81
2020/12/03 07:57:53;;;;;;;44.63;17.67;;;-0.70;99.90;;;;;;4953374;28;20031;-80
2020/12/03 08:00:34;;;;;;;41.10;17.73;;;-0.70;99.90;;;;;;4967410;28;20478;-82
2020/12/03 08:03:01;;;;;;;45.97;17.37;;;-0.70;99.90;;;;;;4960429;28;20058;-77
2020/12/03 08:05:39;;;;;;;47.07;18.83;;;-0.60;99.90;;;;;;4953469;28;20051;-76
2020/12/03 08:08:06;;;;;;;40.60;18.03;;;-0.60;99.90;;;;;;4958674;28;20031;-76
2020/12/03 08:10:40;;;;;;;42.17;17.10;;;-0.50;99.90;;;;;;4964568;28;20034;-76
2020/12/03 08:13:37;;;;;;;35.53;13.63;;;-0.40;99.90;;;;;;5008056;28;20064;-73
2020/12/03 08:16:06;;;;;;;40.53;15.00;;;-0.50;99.90;;;;;;5025212;28;20025;-76
2020/12/03 08:18:44;;;;;;;40.30;17.20;;;-0.50;99.90;;;;;;5026337;28;20560;-76
2020/12/03 08:21:11;;;;;;;41.70;17.27;;;-0.40;99.90;;;;;;5039170;28;20495;-76
2020/12/03 08:23:38;;;;;;;38.67;17.03;;;-0.40;99.90;;;;;;5038937;28;20045;-76
2020/12/03 08:26:04;;;;;;;36.47;15.43;;;-0.40;99.90;;;;;;5040149;28;20028;-78
2020/12/03 08:28:31;;;;;;;43.67;18.10;;;-0.40;99.90;;;;;;5055783;28;20500;-77
2020/12/03 08:30:56;;;;;;;42.03;17.90;;;-0.30;99.90;;;;;;5059245;28;20025;-78
2020/12/03 08:33:29;;;;;;;36.60;15.57;;;-0.30;99.90;;;;;;5048423;28;20033;-77
2020/12/03 08:36:00;;;;;;;37.50;16.77;;;-0.40;99.90;;;;;;5045940;28;20021;-78
2020/12/03 08:38:32;;;;;;;41.67;18.07;;;-0.40;99.90;;;;;;5046458;28;20037;-76
2020/12/03 08:41:02;;;;;;;42.63;17.70;;;-0.30;99.90;;;;;;5046364;28;20555;-77
2020/12/03 08:43:28;;;;;;;;;;;-0.20;99.90;;;;;;5044207;28;20025;-76
2020/12/03 08:46:03;;;;;;;43.17;17.03;;;-0.20;99.90;;;;;;5047355;28;20235;-78
2020/12/03 08:48:33;;;;;;;37.03;16.50;;;-0.10;99.90;;;;;;5051640;28;20026;-77
2020/12/03 08:51:08;;;;;;;39.83;16.13;;;-0.10;99.90;;;;;;5048473;28;20384;-76
2020/12/03 08:53:35;;;;;;;40.30;16.10;;;0.00;99.90;;;;;;5052619;28;20496;-77
2020/12/03 08:56:12;;;;;;;40.10;17.87;;;0.10;99.90;;;;;;5051693;28;20491;-77
2020/12/03 08:58:41;;;;;;;35.57;16.50;;;0.10;99.90;;;;;;5052611;28;20391;-76
2020/12/03 09:01:08;;;;;;;36.78;16.08;;;0.20;99.90;;;;;;5051932;28;20039;-77
2020/12/03 09:03:34;;;;;;;38.73;15.60;;;0.20;99.90;;;;;;5052372;28;20021;-77
2020/12/03 09:06:00;;;;;;;33.57;15.27;;;0.40;99.90;;;;;;5051873;28;20112;-77
2020/12/03 09:08:26;;;;;;;34.43;16.70;;;0.40;99.90;;;;;;5052093;28;20017;-76
2020/12/03 09:10:57;;;;;;;38.70;16.83;;;0.50;99.90;;;;;;5042008;28;20018;-76
2020/12/03 09:13:23;;;;;;;36.87;16.57;;;0.50;99.90;;;;;;5042218;28;20043;-76
2020/12/03 09:15:53;;;;;;;35.80;16.07;;;0.60;99.90;;;;;;5053380;28;20025;-76
2020/12/03 09:18:18;;;;;;;;;;;0.70;99.90;;;;;;5054754;28;20025;-76
2020/12/03 09:20:45;;;;;;;35.93;16.10;;;0.60;99.90;;;;;;5054144;28;19986;-77
2020/12/03 09:23:15;;;;;;;35.60;16.37;;;0.70;99.90;;;;;;5052763;28;20418;-76
2020/12/03 09:25:41;;;;;;;37.33;17.17;;;0.70;99.90;;;;;;5054339;28;20028;-77
2020/12/03 09:28:06;;;;;;;36.27;16.67;;;0.80;99.90;;;;;;5053832;28;20452;-78
2020/12/03 09:30:33;;;;;;;36.73;16.60;;;0.80;99.90;;;;;;5053978;28;20060;-75
2020/12/03 09:33:01;;;;;;;33.42;15.20;;;0.90;99.90;;;;;;5040145;28;20041;-78
2020/12/03 09:35:28;;;;;;;40.47;16.47;;;0.90;99.90;;;;;;5035612;28;20487;-77
2020/12/03 09:38:00;;;;;;;33.03;15.27;;;1.00;99.90;;;;;;5049605;28;20029;-77
2020/12/03 09:40:27;;;;;;;32.20;13.98;;;0.80;99.90;;;;;;5053711;28;20044;-77
2020/12/03 09:42:54;;;;;;;32.77;16.17;;;0.90;99.90;;;;;;5053517;28;20074;-76
2020/12/03 09:45:23;;;;;;;31.90;16.20;;;0.90;99.90;;;;;;5046472;28;20104;-77
2020/12/03 09:47:49;;;;;;;34.67;14.65;;;0.90;99.90;;;;;;5034294;28;20029;-76
2020/12/03 09:50:16;;;;;;;33.27;17.20;;;0.90;99.90;;;;;;5035291;28;20081;-77
2020/12/03 09:52:43;;;;;;;33.13;16.07;;;0.90;99.90;;;;;;5034870;28;20026;-78
2020/12/03 09:55:12;;;;;;;31.57;14.47;;;0.90;99.90;;;;;;5016731;28;20059;-75
2020/12/03 09:57:38;;;;;;;29.77;14.90;;;1.00;99.90;;;;;;5034481;28;20025;-76
2020/12/03 10:00:08;;;;;;;33.75;15.02;;;0.80;99.90;;;;;;5033675;28;20034;-76
2020/12/03 10:03:17;;;;;;;31.67;14.60;;;0.90;99.90;;;;;;5033967;28;20017;-77
2020/12/03 10:06:03;;;;;;;32.25;15.07;;;0.90;99.90;;;;;;5033751;28;20097;-76
2020/12/03 10:08:49;;;;;;;34.83;15.97;;;1.00;99.90;;;;;;5033179;28;20048;-75
2020/12/03 10:11:45;;;;;;;32.43;15.43;;;1.10;99.90;;;;;;5033634;28;20361;-76
2020/12/03 10:14:32;;;;;;;26.03;13.63;;;1.10;99.90;;;;;;5033118;28;20025;-77
2020/12/03 10:17:04;;;;;;;32.78;14.13;;;1.10;99.90;;;;;;5037036;28;20033;-77
2020/12/03 10:19:34;;;;;;;34.37;15.60;;;1.20;99.90;;;;;;5053106;28;20128;-79
2020/12/03 10:22:03;;;;;;;32.95;15.10;;;1.20;99.90;;;;;;5052823;28;20072;-76
2020/12/03 10:24:57;;;;;;;31.23;14.00;;;1.20;99.90;;;;;;5053237;28;20059;-78
2020/12/03 10:27:40;;;;;;;30.13;12.43;;;1.20;99.90;;;;;;5036362;28;20042;-77
2020/12/03 10:30:12;;;;;;;26.93;11.87;;;1.10;99.90;;;;;;5052835;28;20024;-77
2020/12/03 10:32:44;;;;;;;27.13;12.53;;;1.00;99.90;;;;;;5042918;28;20083;-78
2020/12/03 10:35:10;;;;;;;29.48;13.90;;;1.00;99.90;;;;;;5033775;28;20044;-80
2020/12/03 10:37:50;;;;;;;34.57;15.57;;;1.20;99.90;;;;;;5048008;28;20025;-77
2020/12/03 10:40:20;;;;;;;;;;;1.10;99.90;;;;;;5053135;28;20082;-77
2020/12/03 10:42:59;;;;;;;30.98;15.82;;;1.10;99.90;;;;;;5053086;28;19912;-77
2020/12/03 10:45:30;;;;;;;29.05;13.82;;;1.20;99.90;;;;;;5035334;28;20024;-77
2020/12/03 10:48:00;;;;;;;27.75;14.10;;;1.40;99.90;;;;;;5051859;28;20033;-76
2020/12/03 10:50:51;;;;;;;35.03;16.25;;;1.50;99.90;;;;;;5052421;28;20387;-78
2020/12/03 10:53:27;;;;;;;30.23;15.07;;;1.50;99.90;;;;;;5052446;28;20025;-76
2020/12/03 10:56:02;;;;;;;27.45;14.60;;;1.50;99.90;;;;;;5052522;28;20411;-78
2020/12/03 10:58:41;;;;;;;39.40;16.33;;;1.60;99.90;;;;;;5052534;28;20029;-78
2020/12/03 11:01:13;;;;;;;38.67;18.55;;;1.50;99.90;;;;;;5035464;28;20076;-77
2020/12/03 11:03:40;;;;;;;32.40;15.27;;;1.60;99.90;;;;;;5033379;28;20068;-79
2020/12/03 11:06:06;;;;;;;30.70;15.27;;;1.50;99.90;;;;;;5032278;28;20380;-76
2020/12/03 11:08:37;;;;;;;28.58;14.30;;;1.50;99.90;;;;;;5032079;28;20025;-76
2020/12/03 11:11:03;;;;;;;30.15;14.40;;;1.50;99.90;;;;;;5033042;28;20053;-76
2020/12/03 11:13:29;;;;;;;30.45;14.60;;;1.50;99.90;;;;;;5031892;28;20468;-77
2020/12/03 11:15:58;;;;;;;28.05;11.98;;;1.50;99.90;;;;;;5031802;28;20037;-76
2020/12/03 11:18:26;;;;;;;28.85;13.23;;;1.60;99.90;;;;;;5031670;28;20107;-77
2020/12/03 11:21:01;;;;;;;26.13;13.35;;;1.50;99.90;;;;;;5033271;28;20115;-78
2020/12/03 11:23:32;;;;;;;25.85;12.82;;;1.60;99.90;;;;;;5051642;28;20017;-78
2020/12/03 11:26:05;;;;;;;25.08;13.65;;;1.70;99.90;;;;;;5051577;28;20102;-76
2020/12/03 11:28:36;;;;;;;25.77;13.32;;;1.80;99.90;;;;;;5052159;28;20024;-77
2020/12/03 11:31:07;;;;;;;31.63;15.07;;;2.00;99.90;;;;;;5054518;28;20028;-78
2020/12/03 11:33:36;;;;;;;29.85;14.88;;;2.20;99.90;;;;;;5034702;28;20044;-77
2020/12/03 11:36:15;;;;;;;29.70;15.05;;;2.20;99.90;;;;;;5034001;28;20484;-77
2020/12/03 11:38:49;;;;;;;31.98;15.75;;;2.30;99.90;;;;;;5032224;28;20025;-78
2020/12/03 11:41:22;;;;;;;26.23;14.45;;;2.40;99.90;;;;;;5032136;28;20068;-78
2020/12/03 11:49:12;;;;;;;28.80;14.48;;;2.50;99.90;;;;;;5031869;28;20048;-76
2020/12/03 11:51:38;;;;;;;28.85;13.18;;;2.50;99.90;;;;;;5031665;28;20550;-80
2020/12/03 11:54:08;;;;;;;29.80;14.70;;;2.70;99.90;;;;;;5032959;28;20049;-78
2020/12/03 11:56:36;;;;;;;29.20;14.25;;;2.80;99.90;;;;;;5031863;28;20112;-77
2020/12/03 11:59:13;;;;;;;25.50;12.80;;;2.90;99.90;;;;;;5031814;28;20017;-77
2020/12/03 12:01:40;;;;;;;23.25;11.18;;;2.90;99.90;;;;;;5039818;28;20037;-79
2020/12/03 12:04:10;;;;;;;19.77;10.88;;;2.80;99.90;;;;;;5052392;28;20369;-76
2020/12/03 12:06:59;;;;;;;20.67;10.88;;;2.60;99.90;;;;;;5052083;28;20083;-77
2020/12/03 12:09:33;;;;;;;21.63;10.88;;;2.40;99.90;;;;;;5051755;28;20025;-78
2020/12/03 12:11:58;;;;;;;27.20;12.75;;;2.40;99.90;;;;;;5051259;28;20025;-78
2020/12/03 12:14:24;;;;;;;25.25;14.00;;;2.40;99.90;;;;;;5051858;28;20487;-77
2020/12/03 12:16:50;;;;;;;27.08;13.68;;;2.40;99.90;;;;;;5051862;28;20021;-80
2020/12/03 12:19:16;;;;;;;33.47;16.70;;;2.50;99.90;;;;;;5051390;28;20028;-78
2020/12/03 12:21:42;;;;;;;28.30;14.70;;;2.70;99.90;;;;;;5051349;28;20056;-77
2020/12/03 12:24:07;;;;;;;26.50;13.43;;;2.90;99.90;;;;;;5049439;28;20021;-77
2020/12/03 12:26:33;;;;;;;27.20;14.07;;;2.90;99.90;;;;;;5033112;28;20025;-78
2020/12/03 12:28:58;;;;;;;23.95;10.90;;;3.00;99.90;;;;;;5051410;28;20025;-77
2020/12/03 12:31:24;;;;;;;26.77;13.65;;;3.00;99.90;;;;;;5052618;28;20021;-78
2020/12/03 12:33:49;;;;;;;29.13;15.75;;;3.00;99.90;;;;;;5032269;28;20026;-77
2020/12/03 12:36:15;;;;;;;24.40;13.00;;;3.10;99.90;;;;;;5032238;28;20029;-77
2020/12/03 12:38:41;;;;;;;25.33;13.63;;;3.20;99.90;;;;;;5032584;28;20143;-77
2020/12/03 12:41:06;;;;;;;22.92;11.55;;;3.40;99.90;;;;;;5030914;28;20060;-77
2020/12/03 12:43:32;;;;;;;24.08;12.73;;;3.40;99.90;;;;;;5031002;28;20057;-77
2020/12/03 12:45:57;;;;;;;21.67;12.77;;;3.40;99.90;;;;;;5031247;28;20480;-77
2020/12/03 12:48:24;;;;;;;18.77;10.68;;;3.00;99.90;;;;;;5019464;28;20028;-76
2020/12/03 12:50:49;;;;;;;20.77;12.15;;;3.20;99.90;;;;;;5037112;28;20034;-79
2020/12/03 12:53:15;;;;;;;22.25;11.20;;;3.20;99.90;;;;;;5035401;28;20109;-76
2020/12/03 12:55:41;;;;;;;22.83;11.45;;;3.40;99.90;;;;;;5035969;28;20034;-76
2020/12/03 12:58:07;;;;;;;22.33;11.23;;;3.40;99.90;;;;;;5051739;28;20635;-78
2020/12/03 13:00:33;;;;;;;22.15;12.38;;;3.20;99.90;;;;;;5053875;28;20041;-77
2020/12/03 13:02:58;;;;;;;22.42;11.98;;;3.40;99.90;;;;;;5045795;28;20079;-76